sensor_id;sensor_type;location;lat;lon;timestamp;P1;durP1;ratioP1;P2;durP2;ratioP2
9473;SDS011;8865;47.636;7.692;2022-10-31T03:19:00;9.30;;;3.20;;
9473;SDS011;8865;47.636;7.692;2022-10-31T03:21:33;5.43;;;3.00;;
9473;SDS011;8865;47.636;7.692;2022-10-31T03:24:05;5.40;;;3.00;;
9473;SDS011;8865;47.636;7.692;2022-10-31T03:26:38;6.73;;;3.23;;
9473;SDS011;8865;47.636;7.692;2022-10-31T03:29:08;8.33;;;3.40;;
9473;SDS011;8865;47.636;7.692;2022-10-31T03:32:26;7.10;;;2.97;;
9473;SDS011;8865;47.636;7.692;2022-10-31T03:34:33;7.63;;;3.27;;
9473;SDS011;8865;47.636;7.692;2022-10-31T03:37:04;8.07;;;3.10;;
9473;SDS011;8865;47.636;7.692;2022-10-31T03:39:33;4.97;;;3.00;;
9473;SDS011;8865;47.636;7.692;2022-10-31T03:42:05;6.87;;;3.17;;
9473;SDS011;8865;47.636;7.692;2022-10-31T03:44:34;5.27;;;2.67;;
9473;SDS011;8865;47.636;7.692;2022-10-31T03:47:03;6.13;;;3.20;;
9473;SDS011;8865;47.636;7.692;2022-10-31T03:49:30;6.87;;;3.10;;
9473;SDS011;8865;47.636;7.692;2022-10-31T03:54:56;9.77;;;3.13;;
9473;SDS011;8865;47.636;7.692;2022-10-31T03:57:33;6.30;;;2.87;;
9473;SDS011;8865;47.636;7.692;2022-10-31T04:00:10;6.70;;;3.00;;
9473;SDS011;8865;47.636;7.692;2022-10-31T04:02:39;5.63;;;3.00;;
9473;SDS011;8865;47.636;7.692;2022-10-31T04:05:08;4.17;;;2.77;;
9473;SDS011;8865;47.636;7.692;2022-10-31T04:07:37;7.60;;;3.10;;
9473;SDS011;8865;47.636;7.692;2022-10-31T04:10:07;6.50;;;3.37;;
9473;SDS011;8865;47.636;7.692;2022-10-31T04:12:36;5.70;;;3.20;;
9473;SDS011;8865;47.636;7.692;2022-10-31T04:15:05;5.40;;;3.13;;
9473;SDS011;8865;47.636;7.692;2022-10-31T04:17:34;5.20;;;3.23;;
9473;SDS011;8865;47.636;7.692;2022-10-31T04:20:07;4.00;;;2.90;;
9473;SDS011;8865;47.636;7.692;2022-10-31T04:22:34;6.33;;;3.20;;
9473;SDS011;8865;47.636;7.692;2022-10-31T04:25:00;6.80;;;2.63;;
9473;SDS011;8865;47.636;7.692;2022-10-31T04:27:26;3.43;;;2.47;;
9473;SDS011;8865;47.636;7.692;2022-10-31T04:29:52;6.77;;;3.20;;
9473;SDS011;8865;47.636;7.692;2022-10-31T04:32:18;7.73;;;3.20;;
9473;SDS011;8865;47.636;7.692;2022-10-31T04:34:44;6.10;;;2.70;;
9473;SDS011;8865;47.636;7.692;2022-10-31T04:37:10;6.47;;;3.20;;
9473;SDS011;8865;47.636;7.692;2022-10-31T04:39:36;8.10;;;3.07;;
9473;SDS011;8865;47.636;7.692;2022-10-31T04:42:02;6.07;;;2.97;;
9473;SDS011;8865;47.636;7.692;2022-10-31T04:44:28;6.73;;;2.93;;
9473;SDS011;8865;47.636;7.692;2022-10-31T04:46:53;4.73;;;2.70;;
9473;SDS011;8865;47.636;7.692;2022-10-31T04:49:19;4.43;;;3.00;;
9473;SDS011;8865;47.636;7.692;2022-10-31T04:51:46;5.97;;;2.90;;
9473;SDS011;8865;47.636;7.692;2022-10-31T04:54:11;7.50;;;3.10;;
9473;SDS011;8865;47.636;7.692;2022-10-31T04:56:37;4.70;;;3.13;;
9473;SDS011;8865;47.636;7.692;2022-10-31T04:59:03;7.60;;;3.90;;
9473;SDS011;8865;47.636;7.692;2022-10-31T05:01:29;5.47;;;3.37;;
9473;SDS011;8865;47.636;7.692;2022-10-31T05:03:55;8.70;;;3.60;;
9473;SDS011;8865;47.636;7.692;2022-10-31T05:06:21;6.30;;;3.57;;
9473;SDS011;8865;47.636;7.692;2022-10-31T05:08:47;5.53;;;3.27;;
9473;SDS011;8865;47.636;7.692;2022-10-31T05:11:13;9.57;;;3.90;;
9473;SDS011;8865;47.636;7.692;2022-10-31T05:13:39;4.60;;;2.87;;
9473;SDS011;8865;47.636;7.692;2022-10-31T05:16:05;9.00;;;3.13;;
9473;SDS011;8865;47.636;7.692;2022-10-31T05:18:31;8.70;;;3.37;;
9473;SDS011;8865;47.636;7.692;2022-10-31T05:20:57;5.87;;;3.37;;
9473;SDS011;8865;47.636;7.692;2022-10-31T05:23:23;5.57;;;2.93;;
9473;SDS011;8865;47.636;7.692;2022-10-31T05:25:49;6.80;;;2.77;;
9473;SDS011;8865;47.636;7.692;2022-10-31T05:28:15;5.73;;;3.10;;
9473;SDS011;8865;47.636;7.692;2022-10-31T05:30:41;4.87;;;3.10;;
9473;SDS011;8865;47.636;7.692;2022-10-31T05:33:07;5.73;;;2.90;;
9473;SDS011;8865;47.636;7.692;2022-10-31T05:35:33;10.00;;;3.23;;
9473;SDS011;8865;47.636;7.692;2022-10-31T05:37:59;7.67;;;3.00;;
9473;SDS011;8865;47.636;7.692;2022-10-31T05:40:25;5.20;;;3.20;;
9473;SDS011;8865;47.636;7.692;2022-10-31T05:42:53;9.07;;;3.27;;
9473;SDS011;8865;47.636;7.692;2022-10-31T05:45:20;6.03;;;3.40;;
9473;SDS011;8865;47.636;7.692;2022-10-31T05:47:57;5.30;;;3.50;;
9473;SDS011;8865;47.636;7.692;2022-10-31T05:50:25;6.10;;;3.53;;
9473;SDS011;8865;47.636;7.692;2022-10-31T05:52:54;5.83;;;3.10;;
9473;SDS011;8865;47.636;7.692;2022-10-31T05:55:21;4.57;;;2.77;;
9473;SDS011;8865;47.636;7.692;2022-10-31T05:57:47;10.90;;;4.60;;
9473;SDS011;8865;47.636;7.692;2022-10-31T06:00:13;9.17;;;4.27;;
9473;SDS011;8865;47.636;7.692;2022-10-31T06:02:39;7.60;;;3.33;;
9473;SDS011;8865;47.636;7.692;2022-10-31T06:05:05;5.13;;;3.43;;
9473;SDS011;8865;47.636;7.692;2022-10-31T06:07:32;8.27;;;3.30;;
9473;SDS011;8865;47.636;7.692;2022-10-31T06:09:59;5.03;;;3.00;;
9473;SDS011;8865;47.636;7.692;2022-10-31T06:12:26;5.23;;;3.43;;
9473;SDS011;8865;47.636;7.692;2022-10-31T06:14:52;8.00;;;4.47;;
9473;SDS011;8865;47.636;7.692;2022-10-31T06:17:18;5.57;;;3.87;;
9473;SDS011;8865;47.636;7.692;2022-10-31T06:19:44;5.70;;;3.97;;
9473;SDS011;8865;47.636;7.692;2022-10-31T06:22:10;5.57;;;4.17;;
9473;SDS011;8865;47.636;7.692;2022-10-31T06:24:37;8.70;;;4.07;;
9473;SDS011;8865;47.636;7.692;2022-10-31T06:27:03;6.53;;;4.40;;
9473;SDS011;8865;47.636;7.692;2022-10-31T06:29:30;7.40;;;4.70;;
9473;SDS011;8865;47.636;7.692;2022-10-31T06:31:56;5.97;;;4.00;;
9473;SDS011;8865;47.636;7.692;2022-10-31T06:34:22;7.93;;;4.60;;
9473;SDS011;8865;47.636;7.692;2022-10-31T06:36:48;10.50;;;4.73;;
9473;SDS011;8865;47.636;7.692;2022-10-31T06:39:14;6.70;;;4.77;;
9473;SDS011;8865;47.636;7.692;2022-10-31T06:41:40;7.63;;;5.73;;
9473;SDS011;8865;47.636;7.692;2022-10-31T06:44:07;8.47;;;4.30;;
9473;SDS011;8865;47.636;7.692;2022-10-31T06:46:33;4.73;;;4.07;;
9473;SDS011;8865;47.636;7.692;2022-10-31T06:48:59;7.43;;;4.07;;
9473;SDS011;8865;47.636;7.692;2022-10-31T06:51:25;8.53;;;5.00;;
9473;SDS011;8865;47.636;7.692;2022-10-31T06:53:51;6.20;;;4.87;;
9473;SDS011;8865;47.636;7.692;2022-10-31T06:56:17;11.47;;;5.63;;
9473;SDS011;8865;47.636;7.692;2022-10-31T06:58:43;7.53;;;4.20;;
9473;SDS011;8865;47.636;7.692;2022-10-31T07:01:09;10.33;;;6.20;;
9473;SDS011;8865;47.636;7.692;2022-10-31T07:03:35;7.50;;;5.60;;
9473;SDS011;8865;47.636;7.692;2022-10-31T07:06:01;9.77;;;4.30;;
9473;SDS011;8865;47.636;7.692;2022-10-31T07:08:27;8.10;;;4.53;;
9473;SDS011;8865;47.636;7.692;2022-10-31T07:10:54;10.17;;;3.90;;
9473;SDS011;8865;47.636;7.692;2022-10-31T07:13:22;7.07;;;3.73;;
9473;SDS011;8865;47.636;7.692;2022-10-31T07:15:54;4.90;;;3.60;;
9473;SDS011;8865;47.636;7.692;2022-10-31T07:18:42;6.43;;;3.97;;
9473;SDS011;8865;47.636;7.692;2022-10-31T07:21:08;7.60;;;3.73;;
9473;SDS011;8865;47.636;7.692;2022-10-31T07:23:34;6.83;;;3.90;;
9473;SDS011;8865;47.636;7.692;2022-10-31T07:26:00;7.83;;;3.70;;
9473;SDS011;8865;47.636;7.692;2022-10-31T07:28:26;7.87;;;3.90;;
9473;SDS011;8865;47.636;7.692;2022-10-31T07:30:53;8.60;;;4.00;;
9473;SDS011;8865;47.636;7.692;2022-10-31T07:33:21;9.73;;;3.87;;
9473;SDS011;8865;47.636;7.692;2022-10-31T07:35:47;11.33;;;3.90;;
9473;SDS011;8865;47.636;7.692;2022-10-31T07:38:13;6.43;;;3.80;;
9473;SDS011;8865;47.636;7.692;2022-10-31T07:40:41;7.10;;;3.80;;
9473;SDS011;8865;47.636;7.692;2022-10-31T07:43:08;5.30;;;3.90;;
9473;SDS011;8865;47.636;7.692;2022-10-31T07:45:36;7.37;;;3.67;;
9473;SDS011;8865;47.636;7.692;2022-10-31T07:48:03;6.80;;;3.90;;
9473;SDS011;8865;47.636;7.692;2022-10-31T07:50:30;7.57;;;4.20;;
9473;SDS011;8865;47.636;7.692;2022-10-31T07:55:29;10.13;;;4.20;;
9473;SDS011;8865;47.636;7.692;2022-10-31T07:57:56;5.53;;;4.13;;
9473;SDS011;8865;47.636;7.692;2022-10-31T08:00:23;8.97;;;4.50;;
9473;SDS011;8865;47.636;7.692;2022-10-31T08:02:56;8.23;;;4.50;;
9473;SDS011;8865;47.636;7.692;2022-10-31T08:05:30;7.53;;;4.37;;
9473;SDS011;8865;47.636;7.692;2022-10-31T08:07:57;6.97;;;4.57;;
9473;SDS011;8865;47.636;7.692;2022-10-31T08:10:23;7.73;;;4.07;;
9473;SDS011;8865;47.636;7.692;2022-10-31T08:13:00;8.70;;;4.37;;
9473;SDS011;8865;47.636;7.692;2022-10-31T08:15:27;8.40;;;4.67;;
9473;SDS011;8865;47.636;7.692;2022-10-31T08:17:54;6.03;;;3.93;;
9473;SDS011;8865;47.636;7.692;2022-10-31T08:20:20;5.17;;;3.70;;
9473;SDS011;8865;47.636;7.692;2022-10-31T08:22:56;9.17;;;4.17;;
9473;SDS011;8865;47.636;7.692;2022-10-31T08:25:24;5.50;;;3.57;;
9473;SDS011;8865;47.636;7.692;2022-10-31T08:27:55;5.73;;;4.23;;
9473;SDS011;8865;47.636;7.692;2022-10-31T08:30:23;6.43;;;4.83;;
9473;SDS011;8865;47.636;7.692;2022-10-31T08:32:58;7.03;;;3.83;;
9473;SDS011;8865;47.636;7.692;2022-10-31T08:35:25;5.83;;;4.00;;
9473;SDS011;8865;47.636;7.692;2022-10-31T08:37:56;6.67;;;3.80;;
9473;SDS011;8865;47.636;7.692;2022-10-31T08:40:23;8.00;;;4.50;;
9473;SDS011;8865;47.636;7.692;2022-10-31T08:45:23;5.27;;;3.90;;
9473;SDS011;8865;47.636;7.692;2022-10-31T08:47:49;10.80;;;4.57;;
9473;SDS011;8865;47.636;7.692;2022-10-31T08:50:15;8.10;;;4.80;;
9473;SDS011;8865;47.636;7.692;2022-10-31T08:52:41;7.53;;;4.37;;
9473;SDS011;8865;47.636;7.692;2022-10-31T08:55:07;9.70;;;4.00;;
9473;SDS011;8865;47.636;7.692;2022-10-31T08:57:33;14.07;;;4.27;;
9473;SDS011;8865;47.636;7.692;2022-10-31T08:59:59;7.60;;;4.27;;
9473;SDS011;8865;47.636;7.692;2022-10-31T09:02:25;9.30;;;3.70;;
9473;SDS011;8865;47.636;7.692;2022-10-31T09:04:51;9.43;;;4.27;;
9473;SDS011;8865;47.636;7.692;2022-10-31T09:07:17;9.07;;;5.33;;
9473;SDS011;8865;47.636;7.692;2022-10-31T09:09:43;8.23;;;4.33;;
9473;SDS011;8865;47.636;7.692;2022-10-31T09:12:09;6.73;;;3.90;;
9473;SDS011;8865;47.636;7.692;2022-10-31T09:14:35;8.30;;;3.90;;
9473;SDS011;8865;47.636;7.692;2022-10-31T09:17:01;5.37;;;3.77;;
9473;SDS011;8865;47.636;7.692;2022-10-31T09:19:27;5.30;;;3.63;;
9473;SDS011;8865;47.636;7.692;2022-10-31T09:21:53;5.37;;;3.10;;
9473;SDS011;8865;47.636;7.692;2022-10-31T09:24:19;5.57;;;3.50;;
9473;SDS011;8865;47.636;7.692;2022-10-31T09:26:46;6.10;;;3.63;;
9473;SDS011;8865;47.636;7.692;2022-10-31T09:29:12;5.50;;;3.67;;
9473;SDS011;8865;47.636;7.692;2022-10-31T09:31:38;7.07;;;3.57;;
9473;SDS011;8865;47.636;7.692;2022-10-31T09:34:04;6.37;;;3.60;;
9473;SDS011;8865;47.636;7.692;2022-10-31T09:36:30;8.50;;;3.80;;
9473;SDS011;8865;47.636;7.692;2022-10-31T09:38:56;8.17;;;3.83;;
9473;SDS011;8865;47.636;7.692;2022-10-31T09:41:28;5.80;;;3.77;;
9473;SDS011;8865;47.636;7.692;2022-10-31T09:44:44;7.07;;;3.87;;
9473;SDS011;8865;47.636;7.692;2022-10-31T09:47:27;9.73;;;3.70;;
9473;SDS011;8865;47.636;7.692;2022-10-31T09:52:44;6.27;;;3.40;;
9473;SDS011;8865;47.636;7.692;2022-10-31T09:55:39;5.93;;;3.10;;
9473;SDS011;8865;47.636;7.692;2022-10-31T09:58:18;7.33;;;3.43;;
9473;SDS011;8865;47.636;7.692;2022-10-31T10:00:46;6.10;;;3.77;;
9473;SDS011;8865;47.636;7.692;2022-10-31T10:03:19;5.60;;;3.37;;
9473;SDS011;8865;47.636;7.692;2022-10-31T10:08:28;8.10;;;3.80;;
9473;SDS011;8865;47.636;7.692;2022-10-31T10:28:02;8.80;;;4.37;;
9473;SDS011;8865;47.636;7.692;2022-10-31T10:30:38;6.80;;;3.97;;
9473;SDS011;8865;47.636;7.692;2022-10-31T10:33:17;8.60;;;3.93;;
9473;SDS011;8865;47.636;7.692;2022-10-31T10:35:47;7.43;;;3.63;;
9473;SDS011;8865;47.636;7.692;2022-10-31T10:38:34;6.57;;;4.37;;
9473;SDS011;8865;47.636;7.692;2022-10-31T10:41:10;8.37;;;4.13;;
9473;SDS011;8865;47.636;7.692;2022-10-31T10:43:41;7.87;;;4.13;;
9473;SDS011;8865;47.636;7.692;2022-10-31T10:54:21;10.85;;;4.07;;
9473;SDS011;8865;47.636;7.692;2022-10-31T10:56:56;9.88;;;4.30;;
9473;SDS011;8865;47.636;7.692;2022-10-31T10:59:43;7.03;;;4.13;;
9473;SDS011;8865;47.636;7.692;2022-10-31T11:02:17;6.22;;;4.35;;
9473;SDS011;8865;47.636;7.692;2022-10-31T11:04:51;7.65;;;4.53;;
9473;SDS011;8865;47.636;7.692;2022-10-31T11:07:20;7.30;;;3.80;;
9473;SDS011;8865;47.636;7.692;2022-10-31T11:09:46;5.00;;;3.97;;
9473;SDS011;8865;47.636;7.692;2022-10-31T11:12:22;8.90;;;4.15;;
9473;SDS011;8865;47.636;7.692;2022-10-31T11:15:02;6.05;;;4.20;;
9473;SDS011;8865;47.636;7.692;2022-10-31T11:17:33;6.90;;;4.22;;
9473;SDS011;8865;47.636;7.692;2022-10-31T11:20:06;7.13;;;4.60;;
9473;SDS011;8865;47.636;7.692;2022-10-31T11:23:00;7.07;;;4.70;;
9473;SDS011;8865;47.636;7.692;2022-10-31T11:25:28;7.07;;;4.90;;
9473;SDS011;8865;47.636;7.692;2022-10-31T11:28:04;6.03;;;4.55;;
9473;SDS011;8865;47.636;7.692;2022-10-31T11:33:32;8.43;;;4.60;;
9473;SDS011;8865;47.636;7.692;2022-10-31T11:36:03;6.00;;;4.25;;
9473;SDS011;8865;47.636;7.692;2022-10-31T11:38:46;7.25;;;4.07;;
9473;SDS011;8865;47.636;7.692;2022-10-31T11:41:23;7.00;;;4.07;;
9473;SDS011;8865;47.636;7.692;2022-10-31T11:43:50;5.40;;;3.92;;
9473;SDS011;8865;47.636;7.692;2022-10-31T11:46:21;7.03;;;3.70;;
9473;SDS011;8865;47.636;7.692;2022-10-31T11:48:53;6.55;;;3.90;;
9473;SDS011;8865;47.636;7.692;2022-10-31T11:51:21;7.32;;;4.53;;
9473;SDS011;8865;47.636;7.692;2022-10-31T11:53:53;6.20;;;3.72;;
9473;SDS011;8865;47.636;7.692;2022-10-31T11:56:21;5.70;;;4.05;;
9473;SDS011;8865;47.636;7.692;2022-10-31T11:58:57;6.03;;;3.47;;
9473;SDS011;8865;47.636;7.692;2022-10-31T12:01:28;6.95;;;2.95;;
9473;SDS011;8865;47.636;7.692;2022-10-31T12:04:10;6.88;;;3.22;;
9473;SDS011;8865;47.636;7.692;2022-10-31T12:06:40;5.47;;;2.90;;
9473;SDS011;8865;47.636;7.692;2022-10-31T12:09:19;9.75;;;3.70;;
9473;SDS011;8865;47.636;7.692;2022-10-31T12:12:31;4.30;;;3.30;;
9473;SDS011;8865;47.636;7.692;2022-10-31T12:58:53;5.82;;;3.22;;
9473;SDS011;8865;47.636;7.692;2022-10-31T13:06:48;8.20;;;3.38;;
9473;SDS011;8865;47.636;7.692;2022-10-31T13:09:43;7.32;;;3.53;;
9473;SDS011;8865;47.636;7.692;2022-10-31T13:12:15;6.03;;;3.75;;
9473;SDS011;8865;47.636;7.692;2022-10-31T13:14:46;6.35;;;3.13;;
9473;SDS011;8865;47.636;7.692;2022-10-31T13:17:37;9.95;;;3.40;;
9473;SDS011;8865;47.636;7.692;2022-10-31T13:20:20;5.90;;;3.20;;
9473;SDS011;8865;47.636;7.692;2022-10-31T13:22:50;6.82;;;3.70;;
9473;SDS011;8865;47.636;7.692;2022-10-31T13:25:23;6.40;;;3.17;;
9473;SDS011;8865;47.636;7.692;2022-10-31T13:27:57;6.18;;;3.47;;
9473;SDS011;8865;47.636;7.692;2022-10-31T13:30:31;5.30;;;3.30;;
9473;SDS011;8865;47.636;7.692;2022-10-31T13:33:05;5.37;;;3.30;;
9473;SDS011;8865;47.636;7.692;2022-10-31T13:41:26;6.70;;;3.47;;
9473;SDS011;8865;47.636;7.692;2022-10-31T13:44:12;9.50;;;3.67;;
9473;SDS011;8865;47.636;7.692;2022-10-31T13:46:41;8.67;;;3.97;;
9473;SDS011;8865;47.636;7.692;2022-10-31T13:49:26;9.10;;;3.97;;
9473;SDS011;8865;47.636;7.692;2022-10-31T13:51:52;7.53;;;3.80;;
9473;SDS011;8865;47.636;7.692;2022-10-31T13:54:20;6.37;;;3.70;;
9473;SDS011;8865;47.636;7.692;2022-10-31T13:56:50;8.43;;;4.03;;
9473;SDS011;8865;47.636;7.692;2022-10-31T13:59:25;7.90;;;3.83;;
9473;SDS011;8865;47.636;7.692;2022-10-31T14:01:57;7.77;;;3.80;;
9473;SDS011;8865;47.636;7.692;2022-10-31T14:07:13;8.70;;;4.30;;
9473;SDS011;8865;47.636;7.692;2022-10-31T14:17:48;5.80;;;4.22;;
9473;SDS011;8865;47.636;7.692;2022-10-31T14:22:41;8.35;;;4.00;;
9473;SDS011;8865;47.636;7.692;2022-10-31T14:27:52;8.13;;;4.45;;
9473;SDS011;8865;47.636;7.692;2022-10-31T14:30:20;7.00;;;4.60;;
9473;SDS011;8865;47.636;7.692;2022-10-31T14:32:51;8.77;;;4.07;;
9473;SDS011;8865;47.636;7.692;2022-10-31T14:35:20;7.37;;;4.70;;
9473;SDS011;8865;47.636;7.692;2022-10-31T14:41:05;9.73;;;6.50;;
9473;SDS011;8865;47.636;7.692;2022-10-31T14:46:49;8.00;;;4.93;;
9473;SDS011;8865;47.636;7.692;2022-10-31T14:49:40;7.93;;;4.77;;
9473;SDS011;8865;47.636;7.692;2022-10-31T14:52:24;6.43;;;4.30;;
9473;SDS011;8865;47.636;7.692;2022-10-31T14:54:52;9.33;;;4.77;;
9473;SDS011;8865;47.636;7.692;2022-10-31T14:59:53;7.93;;;4.63;;
9473;SDS011;8865;47.636;7.692;2022-10-31T15:02:25;6.03;;;5.07;;
9473;SDS011;8865;47.636;7.692;2022-10-31T15:05:00;7.40;;;5.43;;
9473;SDS011;8865;47.636;7.692;2022-10-31T15:07:28;8.23;;;4.63;;
9473;SDS011;8865;47.636;7.692;2022-10-31T15:09:59;9.60;;;5.00;;
9473;SDS011;8865;47.636;7.692;2022-10-31T15:12:31;7.03;;;4.77;;
9473;SDS011;8865;47.636;7.692;2022-10-31T15:15:10;7.23;;;4.77;;
9473;SDS011;8865;47.636;7.692;2022-10-31T15:17:48;11.03;;;5.07;;
9473;SDS011;8865;47.636;7.692;2022-10-31T15:20:20;9.13;;;5.17;;
9473;SDS011;8865;47.636;7.692;2022-10-31T15:22:48;6.70;;;5.50;;
9473;SDS011;8865;47.636;7.692;2022-10-31T15:25:19;11.23;;;5.80;;
9473;SDS011;8865;47.636;7.692;2022-10-31T15:27:48;10.53;;;6.60;;
9473;SDS011;8865;47.636;7.692;2022-10-31T15:30:16;10.33;;;5.97;;
9473;SDS011;8865;47.636;7.692;2022-10-31T15:32:44;9.90;;;6.10;;
9473;SDS011;8865;47.636;7.692;2022-10-31T15:35:14;10.50;;;5.60;;
9473;SDS011;8865;47.636;7.692;2022-10-31T15:37:51;10.73;;;6.00;;
9473;SDS011;8865;47.636;7.692;2022-10-31T15:40:17;10.93;;;6.57;;
9473;SDS011;8865;47.636;7.692;2022-10-31T15:42:50;9.30;;;6.43;;
9473;SDS011;8865;47.636;7.692;2022-10-31T15:45:25;10.13;;;6.17;;
9473;SDS011;8865;47.636;7.692;2022-10-31T15:47:54;9.30;;;6.00;;
9473;SDS011;8865;47.636;7.692;2022-10-31T15:50:21;14.27;;;6.23;;
9473;SDS011;8865;47.636;7.692;2022-10-31T15:52:48;10.47;;;5.77;;
9473;SDS011;8865;47.636;7.692;2022-10-31T15:55:18;12.80;;;6.07;;
9473;SDS011;8865;47.636;7.692;2022-10-31T15:57:47;8.73;;;5.67;;
9473;SDS011;8865;47.636;7.692;2022-10-31T16:00:26;9.57;;;6.33;;
9473;SDS011;8865;47.636;7.692;2022-10-31T16:05:45;10.27;;;6.83;;
9473;SDS011;8865;47.636;7.692;2022-10-31T16:08:24;8.70;;;6.87;;
9473;SDS011;8865;47.636;7.692;2022-10-31T16:10:57;13.27;;;7.23;;
9473;SDS011;8865;47.636;7.692;2022-10-31T16:13:33;12.77;;;7.33;;
9473;SDS011;8865;47.636;7.692;2022-10-31T16:16:03;13.23;;;7.23;;
9473;SDS011;8865;47.636;7.692;2022-10-31T16:18:38;10.93;;;6.80;;
9473;SDS011;8865;47.636;7.692;2022-10-31T16:21:06;11.17;;;6.80;;
9473;SDS011;8865;47.636;7.692;2022-10-31T16:23:33;10.67;;;6.90;;
9473;SDS011;8865;47.636;7.692;2022-10-31T16:26:00;20.47;;;14.73;;
9473;SDS011;8865;47.636;7.692;2022-10-31T16:28:31;12.67;;;8.30;;
9473;SDS011;8865;47.636;7.692;2022-10-31T16:30:59;11.97;;;6.10;;
9473;SDS011;8865;47.636;7.692;2022-10-31T16:33:35;12.07;;;6.90;;
9473;SDS011;8865;47.636;7.692;2022-10-31T16:38:53;10.87;;;6.93;;
9473;SDS011;8865;47.636;7.692;2022-10-31T16:41:19;10.60;;;7.17;;
9473;SDS011;8865;47.636;7.692;2022-10-31T16:43:46;10.53;;;6.90;;
9473;SDS011;8865;47.636;7.692;2022-10-31T16:46:12;11.70;;;7.00;;
9473;SDS011;8865;47.636;7.692;2022-10-31T16:48:40;10.67;;;6.77;;
9473;SDS011;8865;47.636;7.692;2022-10-31T16:51:07;11.27;;;7.00;;
9473;SDS011;8865;47.636;7.692;2022-10-31T16:53:33;12.77;;;8.23;;
9473;SDS011;8865;47.636;7.692;2022-10-31T16:56:01;11.33;;;7.63;;
9473;SDS011;8865;47.636;7.692;2022-10-31T16:58:32;13.50;;;7.23;;
9473;SDS011;8865;47.636;7.692;2022-10-31T17:01:04;11.63;;;7.60;;
9473;SDS011;8865;47.636;7.692;2022-10-31T17:03:31;10.20;;;6.83;;
9473;SDS011;8865;47.636;7.692;2022-10-31T17:05:57;13.17;;;7.50;;
9473;SDS011;8865;47.636;7.692;2022-10-31T17:08:23;12.40;;;8.77;;
9473;SDS011;8865;47.636;7.692;2022-10-31T17:10:50;13.07;;;8.80;;
9473;SDS011;8865;47.636;7.692;2022-10-31T17:13:19;16.63;;;9.47;;
9473;SDS011;8865;47.636;7.692;2022-10-31T17:15:48;11.73;;;9.17;;
9473;SDS011;8865;47.636;7.692;2022-10-31T17:18:16;15.03;;;9.33;;
9473;SDS011;8865;47.636;7.692;2022-10-31T17:20:43;12.93;;;7.73;;
9473;SDS011;8865;47.636;7.692;2022-10-31T17:23:10;14.03;;;8.57;;
9473;SDS011;8865;47.636;7.692;2022-10-31T17:25:37;15.73;;;9.37;;
9473;SDS011;8865;47.636;7.692;2022-10-31T17:28:03;12.87;;;8.70;;
9473;SDS011;8865;47.636;7.692;2022-10-31T17:30:30;11.73;;;8.60;;
9473;SDS011;8865;47.636;7.692;2022-10-31T17:32:57;17.07;;;8.67;;
9473;SDS011;8865;47.636;7.692;2022-10-31T17:35:23;15.17;;;9.10;;
9473;SDS011;8865;47.636;7.692;2022-10-31T17:37:50;13.00;;;9.70;;
9473;SDS011;8865;47.636;7.692;2022-10-31T17:40:17;16.47;;;11.90;;
9473;SDS011;8865;47.636;7.692;2022-10-31T17:42:48;15.10;;;10.17;;
9473;SDS011;8865;47.636;7.692;2022-10-31T17:45:15;14.47;;;10.27;;
9473;SDS011;8865;47.636;7.692;2022-10-31T17:47:41;12.53;;;8.80;;
9473;SDS011;8865;47.636;7.692;2022-10-31T17:50:07;10.67;;;8.70;;
9473;SDS011;8865;47.636;7.692;2022-10-31T17:52:34;11.03;;;6.90;;
9473;SDS011;8865;47.636;7.692;2022-10-31T17:55:00;12.40;;;7.47;;
9473;SDS011;8865;47.636;7.692;2022-10-31T17:57:26;8.57;;;6.90;;
9473;SDS011;8865;47.636;7.692;2022-10-31T17:59:51;11.57;;;7.10;;
9473;SDS011;8865;47.636;7.692;2022-10-31T18:02:17;17.73;;;11.03;;
9473;SDS011;8865;47.636;7.692;2022-10-31T18:04:43;11.33;;;10.13;;
9473;SDS011;8865;47.636;7.692;2022-10-31T18:07:09;14.20;;;8.17;;
9473;SDS011;8865;47.636;7.692;2022-10-31T18:09:35;13.00;;;8.60;;
9473;SDS011;8865;47.636;7.692;2022-10-31T18:12:01;10.60;;;8.37;;
9473;SDS011;8865;47.636;7.692;2022-10-31T18:14:27;14.00;;;8.00;;
9473;SDS011;8865;47.636;7.692;2022-10-31T18:16:54;14.03;;;8.10;;
9473;SDS011;8865;47.636;7.692;2022-10-31T18:19:20;15.00;;;7.90;;
9473;SDS011;8865;47.636;7.692;2022-10-31T18:21:46;14.37;;;8.80;;
9473;SDS011;8865;47.636;7.692;2022-10-31T18:24:12;14.30;;;9.30;;
9473;SDS011;8865;47.636;7.692;2022-10-31T18:26:38;15.67;;;12.70;;
9473;SDS011;8865;47.636;7.692;2022-10-31T18:29:04;17.50;;;13.03;;
9473;SDS011;8865;47.636;7.692;2022-10-31T18:31:30;14.53;;;10.90;;
9473;SDS011;8865;47.636;7.692;2022-10-31T18:33:56;14.53;;;9.33;;
9473;SDS011;8865;47.636;7.692;2022-10-31T18:36:22;16.23;;;10.30;;
9473;SDS011;8865;47.636;7.692;2022-10-31T18:38:49;13.20;;;10.70;;
9473;SDS011;8865;47.636;7.692;2022-10-31T18:41:15;13.90;;;10.20;;
9473;SDS011;8865;47.636;7.692;2022-10-31T18:43:41;15.40;;;10.97;;
9473;SDS011;8865;47.636;7.692;2022-10-31T18:46:09;19.23;;;11.43;;
9473;SDS011;8865;47.636;7.692;2022-10-31T18:48:38;16.70;;;10.57;;
9473;SDS011;8865;47.636;7.692;2022-10-31T18:51:09;16.90;;;11.33;;
9473;SDS011;8865;47.636;7.692;2022-10-31T18:53:36;20.37;;;11.47;;
9473;SDS011;8865;47.636;7.692;2022-10-31T18:56:06;16.73;;;11.90;;
9473;SDS011;8865;47.636;7.692;2022-10-31T18:58:33;30.10;;;24.23;;
9473;SDS011;8865;47.636;7.692;2022-10-31T19:00:59;15.87;;;12.40;;
9473;SDS011;8865;47.636;7.692;2022-10-31T19:03:30;16.80;;;12.83;;
9473;SDS011;8865;47.636;7.692;2022-10-31T19:05:56;13.67;;;11.60;;
9473;SDS011;8865;47.636;7.692;2022-10-31T19:08:22;14.37;;;10.77;;
9473;SDS011;8865;47.636;7.692;2022-10-31T19:10:48;17.07;;;11.63;;
9473;SDS011;8865;47.636;7.692;2022-10-31T19:13:14;16.23;;;11.23;;
9473;SDS011;8865;47.636;7.692;2022-10-31T19:15:41;20.80;;;13.30;;
9473;SDS011;8865;47.636;7.692;2022-10-31T19:18:07;18.87;;;13.37;;
9473;SDS011;8865;47.636;7.692;2022-10-31T19:20:33;18.27;;;13.37;;
9473;SDS011;8865;47.636;7.692;2022-10-31T19:22:59;20.63;;;13.63;;
9473;SDS011;8865;47.636;7.692;2022-10-31T19:25:25;12.80;;;9.77;;
9473;SDS011;8865;47.636;7.692;2022-10-31T19:27:51;11.77;;;8.77;;
9473;SDS011;8865;47.636;7.692;2022-10-31T19:30:17;15.43;;;10.60;;
9473;SDS011;8865;47.636;7.692;2022-10-31T19:32:43;16.17;;;10.27;;
9473;SDS011;8865;47.636;7.692;2022-10-31T19:35:09;14.57;;;9.80;;
9473;SDS011;8865;47.636;7.692;2022-10-31T19:37:36;20.90;;;9.33;;
9473;SDS011;8865;47.636;7.692;2022-10-31T19:40:05;12.97;;;10.00;;
9473;SDS011;8865;47.636;7.692;2022-10-31T19:42:32;15.07;;;9.97;;
9473;SDS011;8865;47.636;7.692;2022-10-31T19:44:59;13.33;;;9.40;;
9473;SDS011;8865;47.636;7.692;2022-10-31T19:47:25;15.73;;;9.83;;
9473;SDS011;8865;47.636;7.692;2022-10-31T19:49:51;13.70;;;10.00;;
9473;SDS011;8865;47.636;7.692;2022-10-31T19:52:17;14.80;;;10.77;;
9473;SDS011;8865;47.636;7.692;2022-10-31T19:54:43;14.47;;;10.30;;
9473;SDS011;8865;47.636;7.692;2022-10-31T19:57:09;13.43;;;10.93;;
9473;SDS011;8865;47.636;7.692;2022-10-31T19:59:35;13.00;;;10.43;;
9473;SDS011;8865;47.636;7.692;2022-10-31T20:02:01;14.77;;;10.73;;
9473;SDS011;8865;47.636;7.692;2022-10-31T20:04:27;15.40;;;9.60;;
9473;SDS011;8865;47.636;7.692;2022-10-31T20:06:53;13.90;;;9.60;;
9473;SDS011;8865;47.636;7.692;2022-10-31T20:09:19;14.33;;;12.00;;
9473;SDS011;8865;47.636;7.692;2022-10-31T20:11:45;15.53;;;10.67;;
9473;SDS011;8865;47.636;7.692;2022-10-31T20:14:12;14.60;;;10.60;;
9473;SDS011;8865;47.636;7.692;2022-10-31T20:16:40;14.53;;;11.23;;
9473;SDS011;8865;47.636;7.692;2022-10-31T20:19:07;19.83;;;12.20;;
9473;SDS011;8865;47.636;7.692;2022-10-31T20:21:37;16.27;;;12.00;;
9473;SDS011;8865;47.636;7.692;2022-10-31T20:24:05;15.23;;;11.73;;
9473;SDS011;8865;47.636;7.692;2022-10-31T20:26:33;15.50;;;11.53;;
9473;SDS011;8865;47.636;7.692;2022-10-31T20:29:00;17.43;;;11.03;;
9473;SDS011;8865;47.636;7.692;2022-10-31T20:31:28;16.20;;;10.73;;
9473;SDS011;8865;47.636;7.692;2022-10-31T20:33:56;13.50;;;10.10;;
9473;SDS011;8865;47.636;7.692;2022-10-31T20:36:22;16.57;;;10.00;;
9473;SDS011;8865;47.636;7.692;2022-10-31T20:38:50;14.67;;;10.50;;
9473;SDS011;8865;47.636;7.692;2022-10-31T20:41:17;13.13;;;10.13;;
9473;SDS011;8865;47.636;7.692;2022-10-31T20:43:43;13.73;;;11.17;;
9473;SDS011;8865;47.636;7.692;2022-10-31T20:46:10;13.70;;;10.60;;